createdAt,value
2023-02-28T00:00:03.130Z,66.97
2023-02-28T00:02:31.652Z,67.48
2023-02-28T00:04:58.402Z,66.48
2023-02-28T00:07:26.520Z,67.44
2023-02-28T00:09:53.355Z,67.23
2023-02-28T00:12:20.431Z,68.91
2023-02-28T00:14:47.237Z,66.74
2023-02-28T00:17:14.046Z,67.93
2023-02-28T00:19:41.028Z,67.12
2023-02-28T00:22:07.857Z,68.64
2023-02-28T00:24:36.217Z,67.01
2023-02-28T00:27:03.368Z,67.88
2023-02-28T00:29:30.114Z,67.54
2023-02-28T00:31:56.970Z,67.61
2023-02-28T00:34:23.947Z,68.29
2023-02-28T00:36:50.738Z,66.87
2023-02-28T00:39:18.109Z,66.91
2023-02-28T00:41:46.282Z,67.68
2023-02-28T00:44:14.557Z,67.22
2023-02-28T00:46:41.382Z,69.15
2023-02-28T00:49:08.178Z,68.68
2023-02-28T00:51:36.260Z,67.62
2023-02-28T00:54:03.196Z,68.57
2023-02-28T00:56:29.946Z,68.22
2023-02-28T00:58:58.610Z,68.96
2023-02-28T01:01:25.525Z,68.51
2023-02-28T01:03:52.362Z,68.33
2023-02-28T01:06:19.374Z,69.98
2023-02-28T01:08:46.293Z,68.84
2023-02-28T01:11:19.045Z,68.93
2023-02-28T01:13:49.069Z,69.94
2023-02-28T01:16:17.533Z,69.04
2023-02-28T01:18:46.104Z,69.11
2023-02-28T01:21:16.077Z,69.42
2023-02-28T01:23:44.180Z,69.75
2023-02-28T01:26:14.172Z,69.62
2023-02-28T01:28:41.923Z,69.68
2023-02-28T01:31:13.464Z,69.43
2023-02-28T01:33:42.286Z,69.79
2023-02-28T01:36:13.972Z,70.17
2023-02-28T01:38:41.535Z,70.72
2023-02-28T01:41:15.165Z,70.57
2023-02-28T01:44:00.068Z,69.67
2023-02-28T01:46:27.157Z,70.73
2023-02-28T01:49:06.220Z,71.36
2023-02-28T01:51:41.943Z,70.29
2023-02-28T01:54:15.930Z,70.47
2023-02-28T01:56:50.081Z,71.41
2023-02-28T01:59:25.579Z,70.95
2023-02-28T02:01:53.921Z,70.84
2023-02-28T02:04:26.695Z,70.37
2023-02-28T02:06:53.900Z,71.49
2023-02-28T02:09:20.733Z,71.73
2023-02-28T02:11:48.333Z,72.28
2023-02-28T02:14:49.177Z,71.29
2023-02-28T02:17:30.018Z,71.23
2023-02-28T02:20:45.878Z,71.24
2023-02-28T02:23:52.583Z,71.36
2023-02-28T02:26:59.278Z,71.80
2023-02-28T02:30:37.687Z,71.87
2023-02-28T02:33:29.739Z,70.74
2023-02-28T02:36:08.138Z,72.97
2023-02-28T02:38:45.444Z,71.46
2023-02-28T02:41:24.617Z,71.88
2023-02-28T02:43:59.236Z,71.79
2023-02-28T02:46:34.014Z,72.30
2023-02-28T02:49:06.240Z,73.19
2023-02-28T02:51:38.663Z,72.47
2023-02-28T02:54:15.519Z,72.18
2023-02-28T02:56:45.983Z,72.20
2023-02-28T02:59:19.793Z,71.87
2023-02-28T03:01:46.858Z,72.28
2023-02-28T03:04:20.566Z,71.76
2023-02-28T03:06:51.442Z,72.03
2023-02-28T03:09:18.347Z,72.22
2023-02-28T03:11:46.122Z,72.03
2023-02-28T03:14:38.926Z,73.10
2023-02-28T03:17:38.895Z,72.28
2023-02-28T03:20:22.255Z,72.08
2023-02-28T03:23:08.907Z,72.40
2023-02-28T03:25:53.044Z,71.78
2023-02-28T03:28:32.742Z,73.03
2023-02-28T03:31:11.281Z,72.20
2023-02-28T03:33:45.167Z,71.74
2023-02-28T03:36:19.160Z,71.99
2023-02-28T03:38:55.286Z,72.16
2023-02-28T03:41:26.617Z,72.20
2023-02-28T03:43:59.144Z,71.93
2023-02-28T03:46:32.576Z,72.03
2023-02-28T03:49:12.064Z,73.84
2023-02-28T03:51:44.344Z,71.55
2023-02-28T03:54:19.161Z,72.08
2023-02-28T03:56:54.718Z,72.95
2023-02-28T03:59:29.568Z,72.07
2023-02-28T04:01:58.659Z,72.63
2023-02-28T04:04:28.188Z,71.42
2023-02-28T04:07:04.526Z,73.43
2023-02-28T04:09:33.285Z,71.65
2023-02-28T04:12:00.358Z,72.28
2023-02-28T04:14:27.827Z,73.31
2023-02-28T04:16:54.900Z,71.25
2023-02-28T04:19:21.786Z,73.56
2023-02-28T04:21:51.266Z,71.95
2023-02-28T04:24:21.788Z,72.33
2023-02-28T04:26:53.234Z,73.07
2023-02-28T04:29:22.900Z,73.17
2023-02-28T04:31:50.711Z,71.30
2023-02-28T04:34:17.695Z,72.20
2023-02-28T04:36:44.455Z,71.91
2023-02-28T04:39:11.253Z,71.14
2023-02-28T04:41:38.661Z,70.97
2023-02-28T04:44:06.915Z,72.21
2023-02-28T04:46:33.855Z,72.10
2023-02-28T04:49:00.747Z,71.77
2023-02-28T04:51:28.068Z,71.17
2023-02-28T04:53:55.979Z,71.20
2023-02-28T04:56:24.315Z,72.01
2023-02-28T04:58:51.360Z,70.45
2023-02-28T05:01:26.627Z,70.73
2023-02-28T05:03:55.804Z,70.73
2023-02-28T05:06:25.073Z,71.55
2023-02-28T05:08:52.950Z,71.18
2023-02-28T05:11:24.032Z,70.65
2023-02-28T05:13:52.934Z,71.13
2023-02-28T05:16:22.126Z,71.32
2023-02-28T05:18:49.040Z,72.03
2023-02-28T05:21:29.610Z,74.05
2023-02-28T05:23:58.628Z,70.12
2023-02-28T05:26:26.850Z,69.79
2023-02-28T05:28:53.796Z,71.40
2023-02-28T05:31:22.298Z,70.93
2023-02-28T05:33:49.235Z,70.81
2023-02-28T05:36:16.128Z,70.96
2023-02-28T05:38:42.922Z,71.28
2023-02-28T05:41:11.546Z,72.33
2023-02-28T05:43:39.013Z,70.79
2023-02-28T05:46:07.323Z,71.69
2023-02-28T05:48:37.866Z,71.03
2023-02-28T05:51:05.847Z,70.31
2023-02-28T05:53:33.804Z,69.80
2023-02-28T05:56:00.747Z,69.99
2023-02-28T05:58:28.676Z,70.10
2023-02-28T06:00:55.626Z,69.82
2023-02-28T06:03:22.526Z,70.49
2023-02-28T06:05:50.906Z,71.71
2023-02-28T06:08:17.674Z,70.36
2023-02-28T06:10:44.454Z,71.13
2023-02-28T06:13:11.432Z,71.93
2023-02-28T06:15:38.297Z,70.59
2023-02-28T06:18:05.591Z,70.34
2023-02-28T06:20:32.389Z,71.46
2023-02-28T06:23:01.767Z,71.04
2023-02-28T06:25:29.323Z,71.58
2023-02-28T06:27:56.850Z,71.75
2023-02-28T06:30:23.822Z,71.12
2023-02-28T06:32:50.757Z,71.74
2023-02-28T06:35:17.840Z,71.68
2023-02-28T06:37:44.716Z,70.59
2023-02-28T06:40:14.135Z,71.63
2023-02-28T06:42:41.139Z,70.79
2023-02-28T06:45:09.639Z,71.19
2023-02-28T06:47:37.249Z,70.63
2023-02-28T06:50:06.205Z,70.77
2023-02-28T06:52:33.084Z,70.01
2023-02-28T06:55:00.727Z,70.28
2023-02-28T06:57:32.463Z,69.84
2023-02-28T06:59:59.756Z,70.03
2023-02-28T07:02:27.072Z,69.02
2023-02-28T07:04:54.293Z,70.63
2023-02-28T07:07:21.787Z,70.02
2023-02-28T07:09:48.716Z,69.27
2023-02-28T07:12:15.772Z,69.82
2023-02-28T07:14:43.924Z,68.71
2023-02-28T07:17:11.765Z,68.07
2023-02-28T07:19:39.013Z,64.28
2023-02-28T07:22:06.378Z,65.31
2023-02-28T07:24:33.387Z,61.07
2023-02-28T07:27:00.550Z,61.41
2023-02-28T07:29:28.000Z,61.21
2023-02-28T07:31:56.530Z,58.22
2023-02-28T07:34:23.567Z,58.80
2023-02-28T07:36:54.052Z,60.70
2023-02-28T07:39:21.651Z,61.54
2023-02-28T07:41:48.935Z,63.98
2023-02-28T07:44:16.202Z,61.86
2023-02-28T07:46:43.343Z,57.62
2023-02-28T07:49:11.662Z,57.21
2023-02-28T07:51:44.139Z,57.71
2023-02-28T07:54:11.075Z,55.65
2023-02-28T07:56:37.833Z,55.73
2023-02-28T07:59:05.077Z,55.22
2023-02-28T08:01:32.204Z,55.70
2023-02-28T08:03:59.297Z,52.86
2023-02-28T08:06:27.692Z,50.74
2023-02-28T08:08:54.927Z,54.45
2023-02-28T08:11:21.780Z,54.78
2023-02-28T08:13:48.615Z,53.41
2023-02-28T08:16:15.975Z,55.03
2023-02-28T08:18:42.776Z,54.70
2023-02-28T08:21:11.286Z,53.71
2023-02-28T08:23:40.065Z,55.22
2023-02-28T08:26:07.393Z,58.10
2023-02-28T08:28:34.474Z,56.16
2023-02-28T08:31:01.816Z,53.66
2023-02-28T08:33:28.955Z,53.17
2023-02-28T08:35:56.243Z,55.37
2023-02-28T08:38:24.281Z,54.09
2023-02-28T08:40:59.504Z,55.93
2023-02-28T08:43:26.492Z,55.18
2023-02-28T08:45:53.623Z,54.80
2023-02-28T08:48:20.476Z,53.85
2023-02-28T08:51:06.859Z,56.29
2023-02-28T08:53:34.914Z,55.91
2023-02-28T08:56:06.981Z,56.94
2023-02-28T08:58:34.318Z,59.20
2023-02-28T09:01:01.759Z,58.58
2023-02-28T09:03:28.541Z,57.26
2023-02-28T09:05:57.849Z,55.97
2023-02-28T09:08:26.324Z,55.21
2023-02-28T09:10:53.636Z,53.76
2023-02-28T09:13:22.017Z,56.55
2023-02-28T09:15:48.801Z,56.55
2023-02-28T09:18:16.418Z,56.11
2023-02-28T09:20:44.397Z,53.78
2023-02-28T09:23:13.343Z,55.29
2023-02-28T09:25:47.408Z,56.01
2023-02-28T09:28:14.930Z,54.77
2023-02-28T09:30:44.827Z,54.13
2023-02-28T09:33:11.854Z,51.56
2023-02-28T09:35:38.772Z,49.62
2023-02-28T09:38:10.578Z,51.96
2023-02-28T09:40:49.807Z,52.37
2023-02-28T09:43:31.608Z,53.93
2023-02-28T09:46:08.061Z,51.31
2023-02-28T09:48:42.240Z,50.93
2023-02-28T09:51:31.496Z,51.40
2023-02-28T09:54:01.889Z,50.51
2023-02-28T09:56:36.971Z,52.10
2023-02-28T09:59:14.817Z,56.01
2023-02-28T10:01:58.151Z,56.97
2023-02-28T10:04:44.444Z,55.99
2023-02-28T10:07:46.691Z,56.35
2023-02-28T10:10:24.974Z,57.47
2023-02-28T10:12:57.032Z,56.69
2023-02-28T10:15:30.934Z,56.72
2023-02-28T10:18:09.335Z,56.36
2023-02-28T10:20:41.665Z,56.36
2023-02-28T10:23:18.370Z,56.64
2023-02-28T10:25:54.857Z,56.42
2023-02-28T10:28:21.689Z,55.92
2023-02-28T10:30:51.768Z,56.59
2023-02-28T10:33:25.387Z,56.26
2023-02-28T10:35:53.747Z,54.94
2023-02-28T10:38:24.065Z,55.72
2023-02-28T10:40:51.952Z,55.43
2023-02-28T10:43:24.220Z,53.05
2023-02-28T10:46:00.744Z,52.24
2023-02-28T10:48:36.815Z,50.64
2023-02-28T10:51:06.619Z,52.70
2023-02-28T10:53:57.616Z,53.55
2023-02-28T10:56:27.769Z,54.61
2023-02-28T10:58:57.817Z,54.07
2023-02-28T11:01:36.410Z,55.20
2023-02-28T11:04:18.549Z,54.83
2023-02-28T11:06:46.367Z,55.61
2023-02-28T11:09:25.847Z,54.83
2023-02-28T11:11:52.975Z,54.13
2023-02-28T11:14:26.186Z,51.39
2023-02-28T11:16:55.541Z,50.01
2023-02-28T11:19:29.477Z,46.80
2023-02-28T11:22:02.614Z,50.62
2023-02-28T11:24:36.346Z,52.18
2023-02-28T11:27:04.093Z,48.97
2023-02-28T11:29:33.911Z,45.96
2023-02-28T11:32:13.985Z,47.48
2023-02-28T11:34:44.764Z,49.32
2023-02-28T11:37:16.233Z,48.48
2023-02-28T11:39:44.441Z,46.65
2023-02-28T11:42:50.767Z,46.42
2023-02-28T11:45:43.591Z,47.42
2023-02-28T11:48:22.499Z,45.66
2023-02-28T11:51:16.199Z,46.75
2023-02-28T11:54:12.643Z,44.33
2023-02-28T11:56:45.516Z,48.57
2023-02-28T11:59:38.850Z,48.65
2023-02-28T12:02:24.400Z,48.19
2023-02-28T12:05:20.116Z,48.33
2023-02-28T12:08:05.048Z,49.35
2023-02-28T12:10:45.333Z,49.92
2023-02-28T12:13:25.069Z,49.90
2023-02-28T12:16:18.554Z,49.43
2023-02-28T12:19:07.453Z,48.34
2023-02-28T12:21:58.949Z,48.98
2023-02-28T12:24:59.750Z,49.54
2023-02-28T12:27:33.924Z,50.00
2023-02-28T12:30:14.303Z,49.70
2023-02-28T12:32:47.868Z,49.45
2023-02-28T12:35:22.870Z,48.98
2023-02-28T12:37:59.104Z,48.74
2023-02-28T12:40:44.448Z,49.34
2023-02-28T12:43:17.865Z,50.86
2023-02-28T12:45:51.846Z,47.44
2023-02-28T12:48:27.204Z,49.04
2023-02-28T12:50:55.424Z,49.65
2023-02-28T12:53:34.348Z,48.92
2023-02-28T12:56:17.910Z,48.68
2023-02-28T12:58:51.964Z,49.06
2023-02-28T13:01:46.914Z,48.98
2023-02-28T13:05:48.034Z,49.58
2023-02-28T13:09:04.537Z,49.61
2023-02-28T13:11:41.058Z,49.30
2023-02-28T13:14:24.145Z,49.71
2023-02-28T13:17:19.067Z,50.86
2023-02-28T13:19:58.338Z,50.14
2023-02-28T13:22:41.430Z,50.72
2023-02-28T13:25:52.656Z,51.01
2023-02-28T13:29:29.712Z,50.21
2023-02-28T13:32:33.896Z,50.29
2023-02-28T13:35:44.815Z,50.27
2023-02-28T13:38:39.348Z,50.08
2023-02-28T13:41:44.415Z,50.21
2023-02-28T13:44:14.346Z,49.02
2023-02-28T13:47:24.094Z,49.89
2023-02-28T13:49:54.006Z,49.84
2023-02-28T13:52:24.995Z,50.67
2023-02-28T13:55:25.011Z,50.06
2023-02-28T13:58:11.412Z,50.47
2023-02-28T14:01:04.474Z,50.16
2023-02-28T14:03:56.269Z,50.81
2023-02-28T14:06:30.537Z,50.37
2023-02-28T14:09:02.147Z,50.33
2023-02-28T14:11:34.013Z,50.32
2023-02-28T14:14:03.269Z,50.07
2023-02-28T14:16:41.960Z,50.18
2023-02-28T14:19:15.472Z,49.81
2023-02-28T14:22:15.732Z,50.13
2023-02-28T14:25:15.737Z,51.14
2023-02-28T14:27:57.962Z,50.35
2023-02-28T14:30:56.314Z,50.06
2023-02-28T14:33:40.513Z,49.86
2023-02-28T14:36:18.391Z,49.76
2023-02-28T14:38:52.190Z,49.73
2023-02-28T14:41:30.127Z,49.95
2023-02-28T14:43:59.953Z,49.64
2023-02-28T14:46:36.816Z,49.96
2023-02-28T14:49:06.473Z,49.20
2023-02-28T14:51:33.554Z,49.59
2023-02-28T14:54:04.627Z,49.46
2023-02-28T14:56:37.330Z,48.91
2023-02-28T14:59:06.103Z,50.07
2023-02-28T15:01:33.023Z,49.21
2023-02-28T15:04:06.628Z,49.35
2023-02-28T15:06:34.332Z,49.47
2023-02-28T15:09:14.581Z,49.82
2023-02-28T15:11:42.690Z,49.54
2023-02-28T15:14:19.668Z,49.58
2023-02-28T15:16:58.974Z,49.85
2023-02-28T15:19:30.598Z,49.67
2023-02-28T15:22:04.581Z,50.16
2023-02-28T15:24:43.676Z,49.93
2023-02-28T15:27:20.341Z,49.48
2023-02-28T15:29:51.880Z,49.57
2023-02-28T15:32:29.811Z,49.47
2023-02-28T15:34:59.676Z,49.33
2023-02-28T15:37:34.435Z,49.72
2023-02-28T15:40:14.950Z,50.40
2023-02-28T15:42:42.503Z,49.79
2023-02-28T15:45:35.576Z,49.46
2023-02-28T15:48:12.451Z,49.70
2023-02-28T15:53:53.895Z,49.94
2023-02-28T15:56:56.206Z,49.73
2023-02-28T15:59:27.256Z,49.89
2023-02-28T16:02:22.417Z,49.77
2023-02-28T16:05:20.893Z,49.37
2023-02-28T16:07:48.435Z,49.17
2023-02-28T16:10:16.059Z,50.10
2023-02-28T16:12:44.353Z,50.30
2023-02-28T16:15:22.663Z,50.23
2023-02-28T16:17:50.062Z,50.23
2023-02-28T16:20:19.427Z,50.08
2023-02-28T16:22:46.240Z,49.68
2023-02-28T16:25:14.851Z,50.28
2023-02-28T16:27:49.358Z,51.12
2023-02-28T16:30:22.719Z,51.32
2023-02-28T16:32:50.707Z,50.93
2023-02-28T16:35:19.112Z,50.54
2023-02-28T16:37:46.526Z,50.84
2023-02-28T16:40:16.751Z,51.16
2023-02-28T16:42:47.655Z,50.71
2023-02-28T16:45:21.894Z,49.92
2023-02-28T16:47:50.003Z,50.15
2023-02-28T16:50:20.294Z,50.70
2023-02-28T16:52:48.046Z,50.77
2023-02-28T16:55:15.423Z,50.74
2023-02-28T16:57:46.910Z,50.87
2023-02-28T17:00:15.085Z,51.40
2023-02-28T17:02:43.083Z,50.74
2023-02-28T17:05:12.873Z,51.94
2023-02-28T17:07:39.961Z,51.55
2023-02-28T17:10:16.258Z,52.21
2023-02-28T17:12:44.831Z,52.01
2023-02-28T17:15:14.001Z,52.94
2023-02-28T17:17:42.501Z,51.92
2023-02-28T17:20:14.194Z,52.75
2023-02-28T17:22:42.158Z,52.21
2023-02-28T17:25:11.263Z,54.50
2023-02-28T17:27:38.634Z,54.98
2023-02-28T17:30:17.739Z,55.58
2023-02-28T17:32:44.858Z,55.09
2023-02-28T17:35:13.172Z,55.28
2023-02-28T17:37:40.782Z,55.32
2023-02-28T17:40:14.389Z,55.47
2023-02-28T17:42:41.162Z,56.00
2023-02-28T17:45:10.919Z,56.14
2023-02-28T17:47:38.386Z,55.85
2023-02-28T17:50:06.513Z,56.18
2023-02-28T17:52:33.341Z,56.27
2023-02-28T17:55:00.149Z,57.34
2023-02-28T17:57:27.011Z,57.87
2023-02-28T17:59:53.847Z,57.51
2023-02-28T18:02:22.256Z,57.32
2023-02-28T18:04:49.968Z,57.52
2023-02-28T18:07:16.837Z,56.81
2023-02-28T18:09:43.711Z,57.49
2023-02-28T18:12:10.644Z,57.67
2023-02-28T18:14:37.468Z,57.95
2023-02-28T18:17:04.443Z,57.88
2023-02-28T18:19:32.774Z,58.27
2023-02-28T18:21:59.559Z,58.24
2023-02-28T18:24:26.606Z,58.10
2023-02-28T18:26:53.491Z,59.55
2023-02-28T18:29:23.680Z,57.87
2023-02-28T18:31:50.915Z,57.83
2023-02-28T18:34:18.059Z,59.07
2023-02-28T18:36:46.335Z,58.11
2023-02-28T18:39:13.123Z,58.24
2023-02-28T18:41:40.338Z,58.28
2023-02-28T18:44:19.106Z,58.57
2023-02-28T18:46:47.097Z,57.99
2023-02-28T18:49:13.963Z,58.43
2023-02-28T18:51:41.292Z,58.43
2023-02-28T18:54:09.622Z,59.16
2023-02-28T18:56:36.538Z,58.56
2023-02-28T18:59:03.651Z,58.58
2023-02-28T19:01:30.986Z,59.52
2023-02-28T19:04:00.371Z,60.06
2023-02-28T19:06:28.294Z,60.06
2023-02-28T19:08:56.644Z,59.38
2023-02-28T19:11:26.546Z,60.06
2023-02-28T19:13:53.489Z,60.75
2023-02-28T19:16:22.405Z,59.51
2023-02-28T19:18:49.571Z,60.17
2023-02-28T19:21:21.156Z,59.95
2023-02-28T19:23:48.925Z,60.52
2023-02-28T19:26:18.688Z,61.06
2023-02-28T19:28:47.456Z,60.98
2023-02-28T19:31:23.475Z,60.41
2023-02-28T19:33:51.428Z,61.02
2023-02-28T19:36:19.194Z,62.29
2023-02-28T19:38:46.087Z,61.49
2023-02-28T19:41:16.141Z,61.59
2023-02-28T19:43:44.844Z,61.47
2023-02-28T19:46:14.246Z,61.11
2023-02-28T19:48:41.586Z,61.30
2023-02-28T19:51:11.574Z,61.83
2023-02-28T19:53:41.423Z,61.41
2023-02-28T19:56:09.632Z,61.59
2023-02-28T19:58:37.909Z,62.55
2023-02-28T20:01:10.595Z,62.62
2023-02-28T20:03:38.957Z,61.83
2023-02-28T20:06:10.325Z,62.04
2023-02-28T20:08:38.477Z,61.95
2023-02-28T20:11:08.002Z,62.87
2023-02-28T20:13:35.778Z,62.38
2023-02-28T20:16:06.556Z,62.18
2023-02-28T20:18:33.712Z,62.42
2023-02-28T20:21:02.091Z,62.82
2023-02-28T20:23:29.284Z,62.95
2023-02-28T20:25:59.567Z,62.43
2023-02-28T20:28:26.969Z,62.60
2023-02-28T20:30:53.805Z,62.41
2023-02-28T20:33:20.683Z,62.46
2023-02-28T20:35:47.659Z,62.70
2023-02-28T20:38:15.915Z,62.28
2023-02-28T20:40:43.006Z,62.26
2023-02-28T20:43:09.861Z,62.54
2023-02-28T20:45:36.790Z,62.96
2023-02-28T20:48:03.633Z,62.83
2023-02-28T20:50:30.517Z,62.86
2023-02-28T20:52:57.335Z,62.74
2023-02-28T20:55:25.585Z,62.51
2023-02-28T20:57:52.343Z,62.63
2023-02-28T21:00:20.060Z,62.10
2023-02-28T21:02:47.178Z,62.42
2023-02-28T21:05:14.204Z,62.43
2023-02-28T21:07:41.033Z,62.29
2023-02-28T21:10:09.683Z,62.98
2023-02-28T21:12:38.940Z,63.84
2023-02-28T21:15:07.485Z,64.80
2023-02-28T21:17:34.318Z,64.34
2023-02-28T21:20:02.210Z,64.12
2023-02-28T21:22:29.036Z,64.02
2023-02-28T21:24:55.844Z,64.16
2023-02-28T21:27:22.641Z,63.79
2023-02-28T21:29:50.737Z,63.72
2023-02-28T21:32:17.548Z,63.76
2023-02-28T21:34:44.792Z,63.57
2023-02-28T21:37:11.547Z,64.10
2023-02-28T21:39:38.652Z,63.86
2023-02-28T21:42:05.547Z,64.20
2023-02-28T21:44:33.290Z,64.48
2023-02-28T21:47:01.865Z,64.54
2023-02-28T21:49:29.556Z,64.52
2023-02-28T21:51:57.597Z,65.71
2023-02-28T21:54:24.831Z,65.84
2023-02-28T21:56:52.013Z,67.02
2023-02-28T21:59:19.900Z,66.14
2023-02-28T22:01:49.449Z,66.00
2023-02-28T22:04:18.885Z,65.65
2023-02-28T22:06:45.647Z,66.45
2023-02-28T22:09:12.406Z,65.77
2023-02-28T22:11:39.705Z,66.22
2023-02-28T22:14:11.393Z,65.76
2023-02-28T22:16:50.705Z,65.65
2023-02-28T22:19:21.262Z,65.51
2023-02-28T22:21:49.418Z,65.70
2023-02-28T22:24:16.274Z,65.65
2023-02-28T22:26:43.567Z,65.87
2023-02-28T22:29:10.339Z,65.99
2023-02-28T22:31:37.614Z,66.07
2023-02-28T22:34:16.604Z,66.09
2023-02-28T22:36:45.327Z,66.33
2023-02-28T22:39:12.725Z,66.20
2023-02-28T22:41:40.172Z,66.89
2023-02-28T22:44:07.092Z,66.59
2023-02-28T22:46:36.047Z,67.38
2023-02-28T22:49:05.238Z,67.30
2023-02-28T22:51:32.947Z,66.68
2023-02-28T22:54:01.194Z,66.21
2023-02-28T22:56:30.596Z,66.02
2023-02-28T22:59:00.928Z,65.88
2023-02-28T23:01:30.886Z,65.93
2023-02-28T23:03:58.542Z,66.08
2023-02-28T23:06:30.682Z,66.01
2023-02-28T23:09:03.736Z,66.18
2023-02-28T23:11:34.296Z,66.09
2023-02-28T23:14:01.958Z,65.75
2023-02-28T23:16:33.135Z,66.10
2023-02-28T23:19:03.764Z,65.90
2023-02-28T23:21:31.445Z,66.90
2023-02-28T23:24:03.107Z,66.91
2023-02-28T23:26:31.890Z,66.50
2023-02-28T23:28:59.238Z,66.65
2023-02-28T23:31:26.201Z,66.49
2023-02-28T23:33:53.525Z,66.78
2023-02-28T23:36:20.380Z,67.12
2023-02-28T23:38:50.695Z,67.42
2023-02-28T23:41:21.511Z,67.39
2023-02-28T23:43:48.580Z,67.55
2023-02-28T23:46:16.593Z,67.97
2023-02-28T23:48:44.042Z,68.08
2023-02-28T23:51:14.988Z,68.06
2023-02-28T23:53:44.260Z,68.25
2023-02-28T23:56:15.552Z,68.38
2023-02-28T23:58:45.956Z,68.87
